Time;durP1;ratioP1;P1;durP2;ratioP2;P2;SDS_P1;SDS_P2;PMS_P1;PMS_P2;Temp;Humidity;BMP_temperature;BMP_pressure;BME280_temperature;BME280_humidity;BME280_pressure;Samples;Min_cycle;Max_cycle;Signal;HPM_P1;HPM_P2
2021/08/20 00:00:06;;;;;;;4.35;3.95;;;18.00;99.90;;;;;;5093062;28;20303;-78
2021/08/20 00:02:33;;;;;;;4.13;3.58;;;18.00;99.90;;;;;;5092555;28;20251;-76
2021/08/20 00:05:00;;;;;;;2.90;2.60;;;18.00;99.90;;;;;;5091552;28;20723;-75
2021/08/20 00:07:28;;;;;;;5.80;3.50;;;18.00;99.90;;;;;;5092532;28;20205;-76
2021/08/20 00:09:55;;;;;;;6.68;3.72;;;18.00;99.90;;;;;;5092764;28;20677;-76
2021/08/20 00:12:23;;;;;;;3.45;3.13;;;18.00;99.90;;;;;;5092664;28;20690;-75
2021/08/20 00:14:52;;;;;;;4.63;3.40;;;18.00;99.90;;;;;;5092982;28;20255;-78
2021/08/20 00:17:19;;;;;;;4.25;3.47;;;17.90;99.90;;;;;;5092703;28;20205;-78
2021/08/20 00:19:46;;;;;;;4.47;3.67;;;17.90;99.90;;;;;;5092487;28;20202;-77
2021/08/20 00:22:13;;;;;;;3.05;2.80;;;17.80;99.90;;;;;;5092807;28;20270;-76
2021/08/20 00:24:40;;;;;;;3.90;2.97;;;17.80;99.90;;;;;;5092054;28;20209;-74
2021/08/20 00:27:07;;;;;;;4.25;3.38;;;17.80;99.90;;;;;;5092188;28;20255;-74
2021/08/20 00:29:34;;;;;;;3.67;3.10;;;17.80;99.90;;;;;;5091656;28;20629;-76
2021/08/20 00:32:03;;;;;;;3.15;2.85;;;17.80;99.90;;;;;;5092409;28;20262;-74
2021/08/20 00:34:30;;;;;;;3.47;2.88;;;17.80;99.90;;;;;;5091734;28;20233;-76
2021/08/20 00:36:57;;;;;;;3.22;2.75;;;17.80;99.90;;;;;;5092097;28;20201;-74
2021/08/20 00:39:24;;;;;;;3.58;3.28;;;17.80;99.90;;;;;;5091710;28;20227;-70
2021/08/20 00:41:51;;;;;;;3.33;3.03;;;17.90;99.90;;;;;;5092193;28;20263;-73
2021/08/20 00:44:18;;;;;;;6.53;3.47;;;17.80;99.90;;;;;;5092128;28;20209;-74
2021/08/20 00:46:46;;;;;;;4.00;3.33;;;17.70;99.90;;;;;;5091245;28;20201;-72
2021/08/20 00:49:15;;;;;;;5.05;2.75;;;17.80;99.90;;;;;;5092248;28;20197;-72
2021/08/20 00:51:43;;;;;;;3.70;2.88;;;17.70;99.90;;;;;;5091200;28;20255;-72
2021/08/20 00:54:12;;;;;;;4.68;3.17;;;17.60;99.90;;;;;;5106123;28;20229;-73
2021/08/20 00:56:41;;;;;;;2.70;2.50;;;17.50;99.90;;;;;;5091264;28;20292;-73
2021/08/20 00:59:09;;;;;;;7.00;3.35;;;17.60;99.90;;;;;;5091453;28;20617;-74
2021/08/20 01:01:36;;;;;;;4.68;2.47;;;17.60;99.90;;;;;;5091667;28;20561;-74
2021/08/20 01:04:03;;;;;;;2.90;2.60;;;17.70;99.90;;;;;;5091320;28;20209;-73
2021/08/20 01:06:32;;;;;;;2.72;2.47;;;17.70;99.90;;;;;;5091350;28;20681;-73
2021/08/20 01:08:59;;;;;;;2.67;2.47;;;17.70;99.90;;;;;;5091321;28;20722;-75
2021/08/20 01:11:27;;;;;;;3.80;3.50;;;17.80;99.90;;;;;;5091099;28;20251;-73
2021/08/20 01:13:54;;;;;;;3.35;2.85;;;17.80;99.90;;;;;;5091432;28;20229;-74
2021/08/20 01:16:22;;;;;;;3.22;2.92;;;17.70;99.90;;;;;;5090932;28;20255;-73
2021/08/20 01:18:49;;;;;;;3.28;2.85;;;17.80;99.90;;;;;;5092010;28;20209;-74
2021/08/20 01:21:17;;;;;;;4.75;3.80;;;17.80;99.90;;;;;;5091580;28;20209;-73
2021/08/20 01:23:47;;;;;;;3.95;2.42;;;17.80;99.90;;;;;;5090988;28;20213;-73
2021/08/20 01:26:16;;;;;;;3.38;2.58;;;17.70;99.90;;;;;;5091216;28;20270;-73
2021/08/20 01:28:43;;;;;;;3.38;2.80;;;17.70;99.90;;;;;;5091070;28;20409;-74
2021/08/20 01:31:12;;;;;;;2.90;2.70;;;17.60;99.90;;;;;;5091397;28;20205;-75
2021/08/20 01:33:39;;;;;;;5.50;3.35;;;17.40;99.90;;;;;;5090647;28;20239;-73
2021/08/20 01:36:08;;;;;;;4.90;2.90;;;17.40;99.90;;;;;;5091355;28;20205;-75
2021/08/20 01:38:45;;;;;;;3.17;2.80;;;17.50;99.90;;;;;;5090345;28;20208;-76
2021/08/20 01:41:12;;;;;;;4.32;3.10;;;17.50;99.90;;;;;;5090864;28;20653;-73
2021/08/20 01:43:41;;;;;;;2.97;2.65;;;17.50;99.90;;;;;;5090406;28;20258;-75
2021/08/20 01:46:08;;;;;;;6.88;3.38;;;17.50;99.90;;;;;;5091265;28;20206;-76
2021/08/20 01:48:35;;;;;;;4.72;2.92;;;17.50;99.90;;;;;;5090566;28;20198;-76
2021/08/20 01:51:02;;;;;;;2.83;2.28;;;17.60;99.90;;;;;;5090811;28;20278;-72
2021/08/20 01:53:29;;;;;;;3.70;3.33;;;17.40;99.90;;;;;;5106438;28;20285;-73
2021/08/20 01:55:55;;;;;;;4.43;2.97;;;17.50;99.90;;;;;;5092697;28;20231;-75
2021/08/20 01:58:23;;;;;;;2.85;2.65;;;17.40;99.90;;;;;;5091081;28;20209;-73
2021/08/20 02:00:51;;;;;;;4.22;2.50;;;17.40;99.90;;;;;;5091089;28;20208;-75
2021/08/20 02:03:18;;;;;;;3.50;3.20;;;17.40;99.90;;;;;;5090962;28;20255;-77
2021/08/20 02:05:45;;;;;;;3.83;3.22;;;17.30;99.90;;;;;;5090022;28;20213;-77
2021/08/20 02:08:12;;;;;;;3.10;2.80;;;17.10;99.90;;;;;;5090860;28;20626;-73
2021/08/20 02:10:39;;;;;;;4.13;3.30;;;17.10;99.90;;;;;;5090266;28;20681;-74
2021/08/20 02:13:06;;;;;;;4.55;3.10;;;17.20;99.90;;;;;;5090510;28;20590;-73
2021/08/20 02:15:34;;;;;;;3.53;2.85;;;17.20;99.90;;;;;;5090077;28;20209;-73
2021/08/20 02:18:02;;;;;;;3.90;2.92;;;17.30;99.90;;;;;;5090597;28;20205;-73
2021/08/20 02:20:29;;;;;;;2.63;2.42;;;17.40;99.90;;;;;;5089897;28;20587;-74
2021/08/20 02:22:56;;;;;;;4.70;2.72;;;17.40;99.90;;;;;;5090013;28;20617;-75
2021/08/20 02:25:23;;;;;;;4.43;2.78;;;17.40;99.90;;;;;;5090359;28;20213;-73
2021/08/20 02:27:50;;;;;;;4.80;3.03;;;17.50;99.90;;;;;;5090713;28;20205;-73
2021/08/20 02:30:17;;;;;;;6.35;3.03;;;17.60;99.90;;;;;;5094981;28;20202;-75
2021/08/20 02:32:44;;;;;;;3.90;3.45;;;17.70;99.90;;;;;;5094360;28;20206;-73
2021/08/20 02:35:13;;;;;;;2.67;2.47;;;17.70;99.90;;;;;;5094419;28;20232;-73
2021/08/20 02:37:40;;;;;;;3.67;3.25;;;17.80;99.90;;;;;;5094189;28;20624;-74
2021/08/20 02:40:09;;;;;;;4.47;3.10;;;17.70;99.90;;;;;;5094377;28;20262;-74
2021/08/20 02:42:36;;;;;;;3.40;3.05;;;17.70;99.90;;;;;;5094122;28;20217;-75
2021/08/20 02:45:04;;;;;;;3.50;2.72;;;17.70;99.90;;;;;;5094285;28;20209;-73
2021/08/20 02:47:30;;;;;;;4.20;2.95;;;17.70;99.90;;;;;;5084984;28;20604;-73
2021/08/20 02:49:57;;;;;;;4.22;3.25;;;17.80;99.90;;;;;;5088921;28;20726;-73
2021/08/20 02:52:26;;;;;;;4.03;2.78;;;17.70;99.90;;;;;;5097192;28;20209;-72
2021/08/20 02:54:53;;;;;;;5.10;4.60;;;17.60;99.90;;;;;;5114248;28;20274;-74
2021/08/20 02:57:22;;;;;;;4.05;2.92;;;17.60;99.90;;;;;;5111022;28;20656;-73
2021/08/20 02:59:50;;;;;;;2.60;2.40;;;17.70;99.90;;;;;;5095187;28;20202;-73
2021/08/20 03:02:17;;;;;;;2.72;2.42;;;17.70;99.90;;;;;;5108663;28;20240;-73
2021/08/20 03:04:44;;;;;;;3.33;2.92;;;17.70;99.90;;;;;;5093820;28;20209;-75
2021/08/20 03:07:11;;;;;;;3.83;2.90;;;17.60;99.90;;;;;;5093582;28;20661;-76
2021/08/20 03:09:40;;;;;;;3.20;2.70;;;17.60;99.90;;;;;;5102061;28;20582;-73
2021/08/20 03:12:08;;;;;;;3.42;2.95;;;17.40;99.90;;;;;;5099072;28;20206;-74
2021/08/20 03:14:35;;;;;;;3.58;2.70;;;17.20;99.90;;;;;;5093343;28;20266;-76
2021/08/20 03:17:02;;;;;;;3.45;3.15;;;17.20;99.90;;;;;;5093993;28;20205;-75
2021/08/20 03:19:29;;;;;;;2.90;2.70;;;17.20;99.90;;;;;;5093353;28;20254;-75
2021/08/20 03:21:56;;;;;;;3.63;3.15;;;17.20;99.90;;;;;;5093991;28;20212;-74
2021/08/20 03:24:23;;;;;;;3.83;2.90;;;17.20;99.90;;;;;;5093072;28;20697;-75
2021/08/20 03:26:52;;;;;;;3.28;2.67;;;17.20;99.90;;;;;;5103821;28;20205;-76
2021/08/20 03:29:19;;;;;;;3.25;2.83;;;17.10;99.90;;;;;;5097524;28;20251;-73
2021/08/20 03:31:46;;;;;;;3.17;2.85;;;17.10;99.90;;;;;;5093569;28;20684;-73
2021/08/20 03:34:13;;;;;;;3.47;3.17;;;17.00;99.90;;;;;;5093007;28;20777;-75
2021/08/20 03:36:40;;;;;;;3.30;2.50;;;17.10;99.90;;;;;;5093321;28;20267;-74
2021/08/20 03:39:07;;;;;;;3.97;3.20;;;17.10;99.90;;;;;;5093468;28;20205;-74
2021/08/20 03:41:34;;;;;;;3.65;2.75;;;17.10;99.90;;;;;;5092573;28;20560;-73
2021/08/20 03:44:02;;;;;;;4.72;3.17;;;17.10;99.90;;;;;;5093161;28;20632;-73
2021/08/20 03:46:29;;;;;;;3.42;2.42;;;17.00;99.90;;;;;;5092861;28;20202;-77
2021/08/20 03:48:57;;;;;;;3.42;3.13;;;16.90;99.90;;;;;;5093281;28;20214;-73
2021/08/20 03:51:24;;;;;;;3.72;2.70;;;16.90;99.90;;;;;;5092581;28;20753;-73
2021/08/20 03:53:51;;;;;;;3.33;2.95;;;16.80;99.90;;;;;;5092905;28;20209;-72
2021/08/20 03:56:18;;;;;;;2.97;2.70;;;16.80;99.90;;;;;;5093076;28;20726;-73
2021/08/20 03:58:45;;;;;;;3.08;2.78;;;16.80;99.90;;;;;;5092741;28;20202;-73
2021/08/20 04:01:13;;;;;;;4.03;2.95;;;16.80;99.90;;;;;;5104619;28;20254;-74
2021/08/20 04:03:40;;;;;;;4.70;3.17;;;16.80;99.90;;;;;;5094387;28;20636;-75
2021/08/20 04:06:09;;;;;;;2.95;2.47;;;16.70;99.90;;;;;;5093104;28;20654;-73
2021/08/20 04:08:36;;;;;;;3.83;2.78;;;16.70;99.90;;;;;;5092059;28;20577;-73
2021/08/20 04:11:04;;;;;;;3.50;3.08;;;16.70;99.90;;;;;;5093019;28;20271;-74
2021/08/20 04:13:31;;;;;;;4.40;3.00;;;16.70;99.90;;;;;;5092158;28;20255;-73
2021/08/20 04:15:58;;;;;;;3.47;3.10;;;16.60;99.90;;;;;;5092515;28;20271;-73
2021/08/20 04:18:26;;;;;;;3.50;3.20;;;16.60;99.90;;;;;;5092228;28;20201;-77
2021/08/20 04:20:53;;;;;;;5.25;3.42;;;16.60;99.90;;;;;;5092438;28;20638;-74
2021/08/20 04:23:20;;;;;;;4.97;3.30;;;16.60;99.90;;;;;;5092708;28;20205;-74
2021/08/20 04:25:47;;;;;;;3.70;2.53;;;16.60;99.90;;;;;;5092354;28;20274;-72
2021/08/20 04:28:14;;;;;;;6.43;3.25;;;16.60;99.90;;;;;;5092656;28;20206;-73
2021/08/20 04:30:41;;;;;;;7.75;2.88;;;16.60;99.90;;;;;;5106413;28;20614;-72
2021/08/20 04:33:08;;;;;;;3.67;2.60;;;16.60;99.90;;;;;;5092635;28;20270;-74
2021/08/20 04:35:36;;;;;;;2.85;2.53;;;16.50;99.90;;;;;;5091802;28;20578;-73
2021/08/20 04:38:05;;;;;;;3.53;3.00;;;16.60;99.90;;;;;;5092278;28;20259;-77
2021/08/20 04:40:32;;;;;;;3.92;3.00;;;16.50;99.90;;;;;;5091990;28;20210;-74
2021/08/20 04:42:59;;;;;;;4.25;3.03;;;16.60;99.90;;;;;;5092093;28;20278;-74
2021/08/20 04:45:26;;;;;;;4.15;3.05;;;16.50;99.90;;;;;;5091617;28;20270;-73
2021/08/20 04:47:53;;;;;;;4.57;4.05;;;16.50;99.90;;;;;;5091763;28;20263;-72
2021/08/20 04:50:20;;;;;;;3.90;3.60;;;16.50;99.90;;;;;;5092231;28;20201;-75
2021/08/20 04:52:49;;;;;;;3.30;2.55;;;16.50;99.90;;;;;;5091279;28;20265;-74
2021/08/20 04:55:16;;;;;;;4.35;3.22;;;16.50;99.90;;;;;;5092042;28;20291;-73
2021/08/20 04:57:42;;;;;;;4.50;3.30;;;16.50;99.90;;;;;;5091363;28;20213;-77
2021/08/20 05:00:11;;;;;;;3.92;3.25;;;16.50;99.90;;;;;;5094741;28;20204;-76
2021/08/20 05:02:38;;;;;;;4.55;3.55;;;16.50;99.90;;;;;;5101795;28;20259;-75
2021/08/20 05:05:06;;;;;;;5.40;2.80;;;16.50;99.90;;;;;;5091516;28;20205;-73
2021/08/20 05:07:35;;;;;;;4.78;3.65;;;16.50;99.90;;;;;;5091656;28;20270;-73
2021/08/20 05:10:09;;;;;;;5.03;3.40;;;16.50;99.90;;;;;;5091385;28;20682;-75
2021/08/20 05:12:36;;;;;;;5.03;3.25;;;16.40;99.90;;;;;;5091394;28;20216;-76
2021/08/20 05:15:03;;;;;;;3.40;2.63;;;16.40;99.90;;;;;;5091293;28;20229;-73
2021/08/20 05:17:30;;;;;;;3.67;3.30;;;16.50;99.90;;;;;;5090514;28;20201;-74
2021/08/20 05:19:57;;;;;;;4.38;3.40;;;16.50;99.90;;;;;;5091535;28;20568;-74
2021/08/20 05:22:24;;;;;;;5.47;4.97;;;16.40;99.90;;;;;;5090928;28;20278;-73
2021/08/20 05:24:51;;;;;;;5.93;3.55;;;16.50;99.90;;;;;;5091600;28;20205;-73
2021/08/20 05:27:19;;;;;;;4.53;3.83;;;16.50;99.90;;;;;;5091348;28;20665;-74
2021/08/20 05:29:46;;;;;;;5.07;3.80;;;16.60;99.90;;;;;;5091011;28;20209;-77
2021/08/20 05:32:13;;;;;;;4.18;3.55;;;16.60;99.90;;;;;;5090758;28;20205;-75
2021/08/20 05:34:41;;;;;;;5.95;3.88;;;16.60;99.90;;;;;;5090671;28;20225;-73
2021/08/20 05:37:07;;;;;;;4.53;3.80;;;16.60;99.90;;;;;;5091398;28;20582;-74
2021/08/20 05:39:34;;;;;;;4.40;4.00;;;16.70;99.90;;;;;;5090557;28;20255;-75
2021/08/20 05:42:02;;;;;;;6.28;4.30;;;16.80;99.90;;;;;;5090970;28;20262;-75
2021/08/20 05:44:31;;;;;;;4.85;3.80;;;16.80;99.90;;;;;;5089968;28;20278;-73
2021/08/20 05:46:58;;;;;;;4.25;3.78;;;16.80;99.90;;;;;;5090994;28;20724;-74
2021/08/20 05:49:25;;;;;;;3.88;3.47;;;16.70;99.90;;;;;;5090327;28;20254;-75
2021/08/20 05:51:52;;;;;;;4.85;3.67;;;16.80;99.90;;;;;;5090791;28;20209;-73
2021/08/20 05:54:20;;;;;;;7.53;3.80;;;16.80;99.90;;;;;;5091149;28;20202;-74
2021/08/20 05:56:47;;;;;;;4.25;3.85;;;16.90;99.90;;;;;;5090762;28;20210;-74
2021/08/20 05:59:14;;;;;;;4.97;3.50;;;16.80;99.90;;;;;;5090395;28;20216;-72
2021/08/20 06:01:43;;;;;;;3.97;3.25;;;16.80;99.90;;;;;;5104444;28;20212;-74
2021/08/20 06:04:10;;;;;;;5.05;3.45;;;16.90;99.90;;;;;;5089820;28;20673;-73
2021/08/20 06:06:38;;;;;;;4.75;4.15;;;17.10;99.90;;;;;;5091758;28;20209;-73
2021/08/20 06:09:05;;;;;;;6.57;3.67;;;17.20;99.90;;;;;;5103378;28;20200;-74
2021/08/20 06:11:32;;;;;;;7.53;4.53;;;17.30;99.90;;;;;;5106171;28;20204;-74
2021/08/20 06:13:59;;;;;;;3.58;3.28;;;17.30;99.90;;;;;;5106213;28;20201;-74
2021/08/20 06:16:27;;;;;;;4.78;2.97;;;17.40;99.90;;;;;;5109247;28;20236;-74
2021/08/20 06:18:55;;;;;;;4.90;3.70;;;17.40;99.90;;;;;;5109520;28;20216;-74
2021/08/20 06:21:22;;;;;;;4.10;3.63;;;17.50;99.90;;;;;;5100851;28;20262;-74
2021/08/20 06:23:49;;;;;;;3.90;3.50;;;17.50;99.90;;;;;;5090429;28;20205;-76
2021/08/20 06:26:16;;;;;;;6.10;3.45;;;17.60;99.90;;;;;;5090415;28;20289;-75
2021/08/20 06:28:43;;;;;;;4.78;4.32;;;17.60;99.90;;;;;;5089835;28;20209;-74
2021/08/20 06:31:10;;;;;;;4.95;4.50;;;17.60;99.90;;;;;;5096437;28;20208;-74
2021/08/20 06:33:38;;;;;;;5.43;3.92;;;17.70;99.90;;;;;;5108503;28;20205;-74
2021/08/20 06:36:07;;;;;;;6.93;4.28;;;17.70;99.90;;;;;;5108581;28;20236;-75
2021/08/20 06:38:34;;;;;;;6.80;4.85;;;17.80;99.90;;;;;;5109566;28;20200;-73
2021/08/20 06:41:01;;;;;;;6.10;4.20;;;17.90;99.90;;;;;;5101193;28;20206;-76
2021/08/20 06:43:28;;;;;;;5.55;4.88;;;17.90;99.90;;;;;;5093534;28;20212;-74
2021/08/20 06:45:55;;;;;;;4.78;4.28;;;18.00;99.90;;;;;;5105433;28;20208;-73
2021/08/20 06:48:21;;;;;;;4.55;4.05;;;18.00;99.90;;;;;;5107354;28;20257;-76
2021/08/20 06:50:49;;;;;;;6.55;5.03;;;18.00;99.90;;;;;;5108459;28;20200;-75
2021/08/20 06:53:18;;;;;;;7.25;4.90;;;18.00;99.90;;;;;;5103390;28;20205;-75
2021/08/20 06:55:44;;;;;;;7.47;4.00;;;18.10;99.90;;;;;;5089629;28;20236;-74
2021/08/20 06:58:11;;;;;;;7.43;3.97;;;18.10;99.90;;;;;;5089783;28;20210;-74
2021/08/20 07:00:38;;;;;;;5.60;4.55;;;18.20;99.90;;;;;;5096423;28;20204;-74
2021/08/20 07:03:05;;;;;;;4.97;3.95;;;18.30;99.90;;;;;;5106584;28;20258;-74
2021/08/20 07:05:33;;;;;;;4.43;4.03;;;18.40;99.90;;;;;;5107981;28;20205;-74
2021/08/20 07:08:00;;;;;;;5.07;4.22;;;18.60;99.90;;;;;;5098378;28;20212;-74
2021/08/20 07:10:28;;;;;;;6.07;4.18;;;18.60;99.90;;;;;;5089482;28;20201;-75
2021/08/20 07:12:55;;;;;;;5.20;4.43;;;18.50;99.90;;;;;;5103508;28;20204;-75
2021/08/20 07:15:22;;;;;;;5.50;4.55;;;18.50;99.90;;;;;;5108107;28;20221;-74
2021/08/20 07:17:49;;;;;;;5.45;3.75;;;18.80;99.90;;;;;;5105573;28;20254;-75
2021/08/20 07:20:16;;;;;;;5.25;3.88;;;18.90;99.90;;;;;;5096751;28;20197;-73
2021/08/20 07:22:43;;;;;;;5.47;4.15;;;19.00;99.90;;;;;;5109691;28;20665;-71
2021/08/20 07:25:10;;;;;;;4.75;3.90;;;19.10;99.90;;;;;;5111601;28;20250;-74
2021/08/20 07:27:39;;;;;;;6.53;4.43;;;18.90;99.90;;;;;;5093695;28;20259;-74
2021/08/20 07:30:07;;;;;;;4.70;4.15;;;18.90;99.90;;;;;;5093088;28;20205;-74
2021/08/20 07:32:34;;;;;;;4.93;3.75;;;19.10;99.90;;;;;;5093062;28;20205;-75
2021/08/20 07:35:01;;;;;;;5.82;3.83;;;19.20;99.90;;;;;;5092907;28;20213;-76
2021/08/20 07:37:28;;;;;;;6.22;3.47;;;19.40;99.90;;;;;;5092970;28;20250;-74
2021/08/20 07:39:55;;;;;;;4.47;2.90;;;19.60;99.90;;;;;;5093180;28;20239;-74
2021/08/20 07:42:22;;;;;;;5.55;4.10;;;19.80;99.90;;;;;;5092594;28;20652;-74
2021/08/20 07:44:50;;;;;;;3.97;3.40;;;19.80;99.90;;;;;;5093567;28;20201;-74
2021/08/20 07:47:17;;;;;;;5.65;3.70;;;20.00;99.90;;;;;;5093263;28;20201;-74
2021/08/20 07:49:44;;;;;;;3.80;3.50;;;20.00;99.90;;;;;;5092358;28;20553;-74
2021/08/20 07:52:11;;;;;;;4.68;3.60;;;19.90;99.90;;;;;;5111031;28;20270;-74
2021/08/20 07:54:38;;;;;;;4.05;3.65;;;20.10;99.90;;;;;;5109421;28;20209;-74
2021/08/20 07:57:06;;;;;;;5.93;3.58;;;20.30;99.90;;;;;;5111802;28;20274;-75
2021/08/20 07:59:33;;;;;;;4.35;3.80;;;20.60;99.90;;;;;;5096439;28;20202;-75
2021/08/20 08:02:01;;;;;;;7.60;3.67;;;20.70;99.90;;;;;;5096554;28;20202;-76
2021/08/20 08:04:28;;;;;;;4.45;4.05;;;20.60;99.90;;;;;;5108561;28;20205;-78
2021/08/20 08:06:55;;;;;;;5.57;4.45;;;20.70;99.90;;;;;;5109266;28;20212;-76
2021/08/20 08:09:22;;;;;;;5.97;4.15;;;20.70;99.90;;;;;;5111062;28;20626;-75
2021/08/20 08:11:49;;;;;;;4.65;3.10;;;20.70;99.90;;;;;;5110905;28;20208;-75
2021/08/20 08:14:16;;;;;;;5.80;3.88;;;20.80;99.90;;;;;;5092591;28;20213;-76
2021/08/20 08:16:44;;;;;;;3.75;3.25;;;21.10;99.90;;;;;;5091971;28;20233;-78
2021/08/20 08:19:12;;;;;;;4.35;3.90;;;21.40;99.90;;;;;;5092093;28;20332;-75
2021/08/20 08:21:39;;;;;;;4.72;4.25;;;21.50;99.90;;;;;;5086852;28;20677;-75
2021/08/20 08:24:06;;;;;;;5.65;3.15;;;21.50;99.90;;;;;;5092181;28;20255;-76
2021/08/20 08:26:33;;;;;;;4.43;3.80;;;21.60;99.90;;;;;;5100036;28;21002;-78
2021/08/20 08:29:00;;;;;;;3.83;3.53;;;21.50;99.90;;;;;;5107002;28;20254;-76
2021/08/20 08:31:27;;;;;;;3.92;3.30;;;21.30;99.90;;;;;;5098370;28;20274;-77
2021/08/20 08:33:54;;;;;;;3.83;3.22;;;21.60;99.90;;;;;;5092208;28;20274;-78
2021/08/20 08:36:23;;;;;;;3.10;2.72;;;22.10;99.90;;;;;;5092164;28;20229;-75
2021/08/20 08:38:50;;;;;;;5.00;3.83;;;22.40;99.90;;;;;;5093462;28;20209;-76
2021/08/20 08:41:19;;;;;;;3.25;2.80;;;22.60;99.90;;;;;;5102406;28;20204;-77
2021/08/20 08:43:46;;;;;;;3.38;3.08;;;22.70;99.90;;;;;;5111197;27;20212;-75
2021/08/20 08:46:19;;;;;;;6.32;4.07;;;22.60;99.90;;;;;;5109037;27;20210;-76
2021/08/20 08:48:46;;;;;;;4.03;3.60;;;22.60;99.90;;;;;;5109207;28;20208;-76
2021/08/20 08:51:13;;;;;;;3.80;3.50;;;22.60;99.90;;;;;;5094585;28;20205;-77
2021/08/20 08:53:41;;;;;;;3.63;3.33;;;22.60;99.90;;;;;;5091294;28;20251;-77
2021/08/20 08:56:08;;;;;;;3.63;3.33;;;22.80;99.90;;;;;;5091253;28;20712;-77
2021/08/20 08:58:36;;;;;;;3.55;3.15;;;22.70;99.90;;;;;;5090981;28;20263;-76
2021/08/20 09:01:31;;;;;;;3.88;3.15;;;22.80;99.90;;;;;;5103772;28;20639;-78
2021/08/20 09:04:12;;;;;;;3.15;2.90;;;22.90;99.90;;;;;;5110310;28;20205;-75
2021/08/20 09:06:40;;;;;;;3.65;3.35;;;23.00;99.90;;;;;;5110743;28;20234;-77
2021/08/20 09:09:10;;;;;;;6.00;3.75;;;23.20;99.90;;;;;;5109129;28;20261;-76
2021/08/20 09:11:38;;;;;;;4.20;3.80;;;23.30;99.90;;;;;;5098008;28;20223;-76
2021/08/20 09:14:05;;;;;;;4.32;3.83;;;23.60;99.90;;;;;;5091010;28;20665;-78
2021/08/20 09:16:38;;;;;;;3.63;3.33;;;24.10;99.90;;;;;;5090792;28;20236;-76
2021/08/20 09:19:13;;;;;;;4.10;3.40;;;24.40;99.90;;;;;;5091374;28;20198;-76
2021/08/20 09:21:41;;;;;;;3.15;2.83;;;24.80;99.90;;;;;;5091152;28;20216;-76
2021/08/20 09:24:32;;;;;;;3.90;3.50;;;24.90;99.90;;;;;;5090952;28;20251;-77
2021/08/20 09:27:21;;;;;;;3.88;3.25;;;25.20;99.90;;;;;;5091302;28;20205;-77
2021/08/20 09:30:14;;;;;;;6.18;4.18;;;27.40;99.90;;;;;;5083477;28;20673;-76
2021/08/20 09:32:44;;;;;;;5.03;4.18;;;27.20;99.90;;;;;;5089184;28;20701;-78
2021/08/20 09:35:11;;;;;;;3.63;3.05;;;27.50;99.90;;;;;;5091006;28;20619;-76
2021/08/20 09:37:39;;;;;;;5.05;3.90;;;30.90;99.90;;;;;;5089941;28;20281;-77
2021/08/20 09:40:11;;;;;;;5.00;3.92;;;33.60;99.90;;;;;;5094612;28;20730;-76
2021/08/20 09:42:38;;;;;;;3.95;3.47;;;33.60;99.90;;;;;;5086748;28;20212;-77
2021/08/20 09:45:19;;;;;;;3.88;3.55;;;34.20;99.90;;;;;;5091050;28;20275;-76
2021/08/20 09:47:50;;;;;;;3.65;3.35;;;36.80;99.90;;;;;;5087305;28;20596;-78
2021/08/20 09:50:17;;;;;;;7.28;4.25;;;35.10;99.90;;;;;;5090791;28;20201;-76
2021/08/20 09:52:44;;;;;;;4.20;3.10;;;31.60;99.90;;;;;;5090043;28;20205;-78
2021/08/20 09:55:13;;;;;;;3.28;3.00;;;32.60;99.90;;;;;;5090943;28;20584;-74
2021/08/20 09:57:41;;;;;;;3.40;3.10;;;31.00;99.90;;;;;;5090098;28;20235;-75
2021/08/20 10:00:10;;;;;;;4.30;3.90;;;34.60;99.90;;;;;;5095185;28;20235;-75
2021/08/20 10:02:39;;;;;;;5.88;4.20;;;35.00;99.90;;;;;;5109324;28;20227;-73
2021/08/20 10:05:06;;;;;;;4.07;3.67;;;33.20;99.90;;;;;;5110141;28;20299;-75
2021/08/20 10:07:39;;;;;;;4.07;3.67;;;35.70;99.90;;;;;;5107519;28;20257;-77
2021/08/20 10:10:08;;;;;;;3.60;3.30;;;36.20;99.90;;;;;;5107223;28;20294;-74
2021/08/20 10:12:41;;;;;;;3.65;3.35;;;34.80;99.90;;;;;;5107556;28;20651;-77
2021/08/20 10:15:09;;;;;;;4.93;3.47;;;34.50;99.90;;;;;;5106115;28;20346;-76
2021/08/20 10:17:37;;;;;;;4.90;3.72;;;33.20;99.90;;;;;;5108557;28;20717;-76
2021/08/20 10:20:05;;;;;;;3.80;3.50;;;34.00;99.90;;;;;;5097633;28;20201;-78
2021/08/20 10:22:33;;;;;;;4.03;3.72;;;34.80;99.90;;;;;;5089961;28;20214;-77
2021/08/20 10:25:02;;;;;;;3.95;3.55;;;34.90;99.90;;;;;;5090576;28;20696;-78
2021/08/20 10:27:32;;;;;;;3.47;3.17;;;36.30;99.90;;;;;;5089907;28;20245;-77
2021/08/20 10:30:01;;;;;;;3.60;3.25;;;38.00;99.90;;;;;;5090265;28;20667;-76
2021/08/20 10:32:28;;;;;;;4.03;3.72;;;36.40;99.90;;;;;;5089818;28;20212;-77
2021/08/20 10:34:55;;;;;;;3.88;3.58;;;36.50;99.90;;;;;;5091476;28;20205;-77
2021/08/20 10:37:27;;;;;;;3.60;3.35;;;32.50;99.90;;;;;;5095090;28;20285;-75
2021/08/20 10:39:56;;;;;;;3.17;2.88;;;29.40;99.90;;;;;;5099713;28;20287;-75
2021/08/20 10:42:24;;;;;;;4.07;3.65;;;28.30;99.90;;;;;;5108914;28;20621;-77
2021/08/20 10:45:03;;;;;;;4.15;3.45;;;27.60;99.90;;;;;;5103406;28;20253;-76
2021/08/20 10:47:31;;;;;;;3.60;3.30;;;27.40;99.90;;;;;;5084431;28;20208;-77
2021/08/20 10:50:10;;;;;;;3.55;3.25;;;27.00;99.90;;;;;;5091677;28;20209;-75
2021/08/20 10:52:41;;;;;;;3.72;3.05;;;26.90;99.90;;;;;;5093788;28;20197;-76
2021/08/20 10:55:17;;;;;;;3.58;3.30;;;27.00;99.90;;;;;;5103626;28;20683;-78
2021/08/20 10:58:15;;;;;;;3.40;3.00;;;26.80;99.90;;;;;;5112674;28;20281;-77
2021/08/20 11:00:48;;;;;;;3.20;2.78;;;27.10;99.90;;;;;;5105489;28;20753;-79
2021/08/20 11:03:16;;;;;;;3.92;3.55;;;26.80;99.90;;;;;;5112539;28;20680;-79
2021/08/20 11:05:48;;;;;;;4.47;3.50;;;26.80;99.90;;;;;;5079980;28;20637;-78
2021/08/20 11:08:45;;;;;;;3.95;3.17;;;27.10;99.90;;;;;;5094314;28;20218;-79
2021/08/20 11:11:42;;;;;;;3.50;3.20;;;27.70;99.90;;;;;;5084742;28;20247;-78
2021/08/20 11:14:42;;;;;;;3.42;3.13;;;27.50;99.90;;;;;;5081991;28;20258;-76
2021/08/20 11:17:12;;;;;;;3.13;2.92;;;26.90;99.90;;;;;;5108037;28;20233;-75
2021/08/20 11:19:51;;;;;;;3.42;3.13;;;26.90;99.90;;;;;;5107905;28;20204;-75
2021/08/20 11:22:24;;;;;;;4.00;3.30;;;27.20;99.90;;;;;;5110284;28;20217;-76
2021/08/20 11:25:24;;;;;;;3.75;3.17;;;27.00;99.90;;;;;;5112526;27;20205;-75
2021/08/20 11:27:59;;;;;;;3.20;2.92;;;27.30;99.90;;;;;;5112428;28;20239;-75
2021/08/20 11:30:27;;;;;;;3.28;2.97;;;27.50;99.90;;;;;;5112260;28;20234;-75
2021/08/20 11:33:19;;;;;;;3.85;3.33;;;27.60;99.90;;;;;;5101783;28;20680;-78
2021/08/20 11:35:50;;;;;;;5.20;3.42;;;27.80;99.90;;;;;;5093248;28;20206;-76
2021/08/20 11:38:27;;;;;;;3.38;3.08;;;28.00;99.90;;;;;;5093523;28;20237;-73
2021/08/20 11:40:54;;;;;;;3.50;3.10;;;28.00;99.90;;;;;;5102178;28;20204;-78
2021/08/20 11:43:23;;;;;;;4.57;3.35;;;28.00;99.90;;;;;;5095775;28;20820;-76
2021/08/20 11:45:55;;;;;;;3.13;2.83;;;28.10;99.90;;;;;;5112666;27;20200;-77
2021/08/20 11:48:22;;;;;;;3.20;2.90;;;28.10;99.90;;;;;;5110137;28;20595;-77
2021/08/20 11:50:51;;;;;;;3.78;2.78;;;28.10;99.90;;;;;;5111747;28;20560;-78
2021/08/20 11:53:23;;;;;;;4.28;3.15;;;28.00;99.90;;;;;;5109395;28;20665;-78
2021/08/20 11:55:50;;;;;;;4.30;3.22;;;28.20;99.90;;;;;;5112603;28;20203;-78
2021/08/20 11:58:28;;;;;;;3.20;2.97;;;28.30;99.90;;;;;;5111929;28;20224;-78
2021/08/20 12:00:55;;;;;;;3.35;3.05;;;28.30;99.90;;;;;;5111141;28;20200;-75
2021/08/20 12:03:22;;;;;;;3.38;2.78;;;28.30;99.90;;;;;;5109788;28;20204;-76
2021/08/20 12:05:51;;;;;;;3.22;2.92;;;28.00;99.90;;;;;;5080576;28;20243;-77
2021/08/20 12:08:19;;;;;;;3.45;3.15;;;28.00;99.90;;;;;;5093528;28;20263;-77
2021/08/20 12:10:49;;;;;;;3.85;3.47;;;28.30;99.90;;;;;;5090967;28;20206;-77
2021/08/20 12:13:16;;;;;;;3.83;3.33;;;28.20;99.90;;;;;;5093214;28;20259;-76
2021/08/20 12:15:44;;;;;;;3.55;3.25;;;28.50;99.90;;;;;;5092309;28;20278;-78
2021/08/20 12:18:25;;;;;;;6.55;2.83;;;28.30;99.90;;;;;;5092129;28;20233;-75
2021/08/20 12:20:55;;;;;;;3.17;2.97;;;28.50;99.90;;;;;;5092552;28;20205;-77
2021/08/20 12:23:23;;;;;;;3.65;3.05;;;28.60;99.90;;;;;;5087222;28;20210;-78
2021/08/20 12:25:50;;;;;;;3.85;3.20;;;28.90;99.90;;;;;;5097703;28;20258;-76
2021/08/20 12:28:19;;;;;;;5.15;3.63;;;28.80;99.90;;;;;;5100316;28;20209;-77
2021/08/20 12:30:48;;;;;;;3.85;3.42;;;29.00;99.90;;;;;;5095084;28;20209;-77
2021/08/20 12:33:16;;;;;;;3.47;2.47;;;28.80;99.90;;;;;;5092216;28;20214;-77
2021/08/20 12:35:53;;;;;;;4.72;3.33;;;28.90;99.90;;;;;;5091641;28;20712;-77
2021/08/20 12:38:22;;;;;;;3.75;3.45;;;29.10;99.90;;;;;;5092340;28;20225;-76
2021/08/20 12:40:51;;;;;;;3.38;3.08;;;29.50;99.90;;;;;;5105922;28;20209;-76
2021/08/20 12:43:30;;;;;;;4.05;3.60;;;29.40;99.90;;;;;;5104967;28;20217;-76
2021/08/20 12:46:05;;;;;;;4.18;3.35;;;29.60;99.90;;;;;;5095278;28;20201;-80
2021/08/20 12:48:32;;;;;;;3.60;2.60;;;29.80;99.90;;;;;;5096712;28;20201;-78
2021/08/20 12:51:02;;;;;;;3.67;3.22;;;29.60;99.90;;;;;;5091775;28;20205;-79
2021/08/20 12:53:30;;;;;;;3.60;3.30;;;29.50;99.90;;;;;;5091552;28;20209;-80
2021/08/20 12:55:57;;;;;;;3.60;2.88;;;29.70;99.90;;;;;;5097950;28;20251;-79